Pagrindinis puslapis
METAR-TAF:

METAR-TAF

Oro uostai :

Shahrekord, Iranas

platuma: 32-20N, ilguma: 050-51E, Aukštis: 2078 m

Dabartinis oras

Ataskaita buvo paskelbta 57 minutes, ne 11:00 UTC
Vėjas 2 kt iš Rytų/Pietryčių
Temperatūra -2°C
Drėgmė 80%
Slėgis 1019 hPa
Matomumas: 8000 m
Mažai debesys ne aukštis 4000 ft

METAR: OIFS 271100Z 11002KT 8000 FEW040 M02/M05 Q1019

Laikas: 15:27 (11:57 UTC)


TAF: trūkstamas

Orai ataskaitas ir orų prognozės (METAR, TAF).

turimą stotys yra geltonos ir raudonos taškus žemėlapyje.

Perkelti pele per norėdami pamatyti stoties vardą.

Tada spustelėkite, norėdami matyti oro stebėjimo ir prognozės.

Norėdami pakeisti žemėlapį: spustelėkite ant žalios mygtukų su juodo kryžiaus žemyn,; žalią mygtuką su brūkšneliu, jei norite nutolinti; arba žalių rodyklių gretimoms žemėlapius.


METAR-TAF: